X  Fermer Données météorologiques d'aviation de Metar     EHKD De Kooy Airport
Température
21°C Température
17°C Point de rosée
78% Humidité



Vent
15 MPH
24 KM/H
7 M/S
13 KTS



200°
SSO
Conditions actuelles

Nuages épars Nuages épars
Pression 1014.9 (hPa) - 29.97 (inHg)
Visibilité 6 (mile) - 9.7 (km)
Aéroport
Code de l'aéroport EHKD

Emplacement: De Kooy Airport
Distance: 34 (mi)

Metar:
EHKD 221157Z AUTO 20013KT 170V240 9999 SCT016 SCT019 21/17 Q1015 BLU BECMG SCT020

Temps: 22-07-2024 13:57 CEST